Time;durP1;ratioP1;P1;durP2;ratioP2;P2;SDS_P1;SDS_P2;PMS_P1;PMS_P2;Temp;Humidity;BMP_temperature;BMP_pressure;BME280_temperature;BME280_humidity;BME280_pressure;Samples;Min_cycle;Max_cycle;Signal;HPM_P1;HPM_P2
2024/02/04 00:00:42;;;;;;;18.55;11.00;;;;;;;6.04;68.29;99751.91;6167367;23;20005;-96
2024/02/04 00:03:11;;;;;;;18.05;11.27;;;;;;;6.15;68.10;99760.19;6143017;23;20004;-95
2024/02/04 00:05:36;;;;;;;18.02;10.15;;;;;;;6.10;68.50;99742.16;6144731;23;20012;-96
2024/02/04 00:08:06;;;;;;;16.25;9.60;;;;;;;6.14;68.03;99737.97;6153796;23;20001;-96
2024/02/04 00:10:43;;;;;;;;;;;;;;;;;;;;;
2024/02/04 00:13:20;;;;;;;17.17;9.27;;;;;;;6.25;68.80;99750.56;6113091;23;20087;-95
2024/02/04 00:15:54;;;;;;;16.60;9.15;;;;;;;6.19;68.25;99729.28;6174027;23;20009;-95
2024/02/04 00:18:21;;;;;;;16.52;9.38;;;;;;;6.27;68.46;99740.44;6172289;23;20004;-96
2024/02/04 00:20:51;;;;;;;13.35;8.30;;;;;;;6.23;68.38;99731.25;6146630;23;20016;-96
2024/02/04 00:23:20;;;;;;;13.77;8.48;;;;;;;6.37;68.61;99747.91;6147680;23;20016;-96
2024/02/04 00:25:51;;;;;;;14.63;7.30;;;;;;;6.35;68.59;99731.28;6123747;23;20012;-96
2024/02/04 00:28:21;;;;;;;11.55;7.18;;;;;;;6.39;68.33;99736.94;6146844;23;20036;-95
2024/02/04 00:30:49;;;;;;;12.93;7.03;;;;;;;6.50;67.85;99740.69;6147260;23;20028;-96
2024/02/04 00:33:27;;;;;;;8.48;6.18;;;;;;;6.45;68.03;99728.00;6168073;23;20005;-95
2024/02/04 00:35:56;;;;;;;9.75;6.45;;;;;;;6.60;67.84;99736.38;6197301;23;20005;-96
2024/02/04 00:38:26;;;;;;;11.63;7.07;;;;;;;6.63;67.59;99732.41;6146934;23;20016;-96
2024/02/04 00:40:56;;;;;;;11.85;7.25;;;;;;;6.64;67.56;99721.50;6147624;23;20005;-95
2024/02/04 00:43:24;;;;;;;11.13;7.05;;;;;;;6.78;67.30;99739.97;6172463;23;20001;-96
2024/02/04 00:45:50;;;;;;;11.80;7.95;;;;;;;6.66;67.35;99734.63;6146840;23;20001;-96
2024/02/04 00:54:37;;;;;;;16.13;8.95;;;;;;;6.59;67.27;99720.56;6196665;23;20008;-96
2024/02/04 00:57:09;;;;;;;19.25;9.20;;;;;;;6.48;67.13;99714.97;6126076;23;20005;-96
2024/02/04 00:59:54;;;;;;;17.10;9.30;;;;;;;6.57;67.53;99720.78;6197257;23;20440;-96
2024/02/04 01:02:23;;;;;;;19.42;9.95;;;;;;;6.64;67.46;99726.00;6154001;23;20072;-95
2024/02/04 01:04:52;;;;;;;16.98;9.00;;;;;;;6.48;67.56;99695.44;6121196;23;20008;-96
2024/02/04 01:07:18;;;;;;;15.40;9.32;;;;;;;6.47;67.80;99705.34;6122092;23;20000;-96
2024/02/04 01:09:50;;;;;;;17.45;9.23;;;;;;;6.41;67.93;99684.88;6121682;23;20060;-96
2024/02/04 01:12:16;;;;;;;;;;;;;;;6.62;67.95;99714.72;6123202;23;20009;-96
2024/02/04 01:14:45;;;;;;;13.52;9.18;;;;;;;6.46;67.83;99681.50;6172933;23;19956;-96
2024/02/04 01:17:11;;;;;;;17.20;10.35;;;;;;;6.50;67.77;99676.50;6176768;23;20039;-96
2024/02/04 01:19:37;;;;;;;15.98;9.90;;;;;;;6.48;67.62;99661.47;6150905;23;20068;-96
2024/02/04 01:22:06;;;;;;;17.17;10.13;;;;;;;6.52;67.71;99661.03;6151870;23;20000;-95
2024/02/04 01:24:49;;;;;;;15.88;10.10;;;;;;;6.68;67.94;99679.84;6154165;23;20089;-95
2024/02/04 01:27:20;;;;;;;16.95;10.15;;;;;;;6.76;67.80;99678.66;6202029;23;20505;-96
2024/02/04 01:29:56;;;;;;;15.80;10.05;;;;;;;6.63;67.57;99652.97;6178567;23;20001;-95
2024/02/04 01:32:25;;;;;;;7.68;5.50;;;;;;;6.77;67.79;99664.22;6108134;23;20007;-96
2024/02/04 01:34:51;;;;;;;12.38;8.00;;;;;;;6.86;67.82;99660.13;6148225;23;20009;-96
2024/02/04 01:37:23;;;;;;;14.43;8.38;;;;;;;6.82;67.45;99642.91;6191670;23;20000;-96
2024/02/04 01:39:50;;;;;;;15.43;9.40;;;;;;;6.93;67.22;99635.09;6146636;23;20009;-96
2024/02/04 01:42:17;;;;;;;13.15;8.07;;;;;;;6.99;67.11;99636.81;6143655;23;20420;-96
2024/02/04 01:44:44;;;;;;;15.77;9.32;;;;;;;6.95;66.73;99632.97;6167802;23;20003;-96
2024/02/04 01:47:13;;;;;;;10.75;7.75;;;;;;;7.14;66.30;99655.88;6190600;23;20005;-96
2024/02/04 01:49:40;;;;;;;12.07;7.60;;;;;;;7.05;66.26;99630.50;6192597;23;19997;-96
2024/02/04 01:52:06;;;;;;;11.50;7.95;;;;;;;7.09;65.86;99637.81;6144986;23;20007;-96
2024/02/04 01:54:32;;;;;;;10.63;7.18;;;;;;;7.12;66.26;99641.91;6143007;23;20004;-95
2024/02/04 02:18:23;;;;;;;10.43;7.22;;;;;;;7.36;65.61;99596.25;6192912;23;20036;-96
2024/02/04 02:21:36;;;;;;;12.52;7.15;;;;;;;7.61;65.32;99618.09;6209769;23;20013;-96
2024/02/04 02:33:35;;;;;;;8.40;5.38;;;;;;;7.46;65.92;99581.16;6223612;23;20032;-96
2024/02/04 02:36:24;;;;;;;11.07;5.75;;;;;;;7.45;65.61;99582.22;6210689;23;20020;-96
2024/02/04 02:39:24;;;;;;;8.52;5.95;;;;;;;7.49;65.79;99594.09;6233688;23;20000;-96
2024/02/04 02:41:53;;;;;;;11.13;7.47;;;;;;;7.54;65.59;99597.91;6196663;23;20000;-96
2024/02/04 02:44:28;;;;;;;10.57;6.78;;;;;;;7.48;65.73;99583.59;6193656;23;20000;-96
2024/02/04 02:47:07;;;;;;;;;;;;;;;;;;;;;
2024/02/04 02:50:37;;;;;;;10.32;6.13;;;;;;;7.52;65.58;99581.25;6216826;23;19980;-96
2024/02/04 02:53:55;;;;;;;7.85;6.10;;;;;;;7.50;65.67;99581.50;6056185;23;20069;-96
2024/02/04 02:56:51;;;;;;;10.25;6.53;;;;;;;7.47;65.75;99571.25;6168168;23;19990;-96
2024/02/04 02:59:23;;;;;;;10.52;6.72;;;;;;;7.51;65.86;99583.09;6210470;23;19993;-96
2024/02/04 03:25:10;;;;;;;7.10;4.57;;;;;;;8.00;64.91;99620.88;6201601;23;20028;-96
2024/02/04 03:43:04;;;;;;;6.82;4.55;;;;;;;8.26;63.04;99583.69;6195120;22;20024;-96
2024/02/04 03:45:30;;;;;;;4.00;3.13;;;;;;;8.33;62.89;99586.19;6136750;23;20017;-95
2024/02/04 03:47:56;;;;;;;5.07;3.17;;;;;;;8.50;62.51;99606.56;6137711;23;20001;-96
2024/02/04 03:50:21;;;;;;;4.85;3.13;;;;;;;8.57;61.81;99589.47;6137091;23;20059;-96
2024/02/04 03:52:49;;;;;;;3.40;2.40;;;;;;;8.76;61.50;99598.84;6136419;23;20001;-96
2024/02/04 03:55:15;;;;;;;4.60;3.00;;;;;;;8.82;61.42;99605.91;6137987;23;20432;-96
2024/02/04 03:57:41;;;;;;;5.40;2.65;;;;;;;8.94;61.07;99604.94;6137138;23;20005;-96
2024/02/04 04:00:08;;;;;;;3.55;2.60;;;;;;;8.96;60.85;99595.56;6136184;23;20039;-96
2024/02/04 04:02:33;;;;;;;4.40;2.63;;;;;;;8.93;60.81;99581.84;6161515;23;20519;-96
2024/02/04 04:04:59;;;;;;;3.70;2.60;;;;;;;9.01;60.64;99590.25;6136703;23;20001;-96
2024/02/04 04:07:25;;;;;;;5.18;3.15;;;;;;;9.15;60.60;99608.66;6136669;23;20008;-96
2024/02/04 04:09:50;;;;;;;4.32;2.83;;;;;;;9.17;60.25;99591.22;6137062;23;20001;-96
2024/02/04 04:12:16;;;;;;;6.10;2.40;;;;;;;9.29;60.00;99605.28;6137771;23;20032;-96
2024/02/04 04:14:47;;;;;;;4.43;2.80;;;;;;;9.12;60.42;99568.88;6137264;23;20412;-96
2024/02/04 04:17:13;;;;;;;4.60;2.83;;;;;;;9.11;59.64;99568.06;6138527;23;20424;-96
2024/02/04 04:19:42;;;;;;;3.95;2.63;;;;;;;9.26;60.00;99575.47;6161663;23;20020;-96
2024/02/04 04:22:12;;;;;;;4.43;2.58;;;;;;;9.25;60.18;99588.06;6137385;23;20005;-96
2024/02/04 04:24:38;;;;;;;5.75;2.30;;;;;;;9.27;60.04;99575.19;6138501;23;20369;-96
2024/02/04 04:27:04;;;;;;;3.50;2.28;;;;;;;9.21;59.19;99561.97;6136193;23;20001;-96
2024/02/04 04:29:30;;;;;;;3.53;2.47;;;;;;;9.26;59.40;99567.41;6135516;23;19997;-96
2024/02/04 04:31:59;;;;;;;3.10;2.30;;;;;;;9.25;59.74;99569.25;6136972;23;20420;-96
2024/02/04 04:34:27;;;;;;;4.53;2.55;;;;;;;9.29;59.61;99578.44;6138951;23;20001;-96
2024/02/04 04:36:55;;;;;;;5.07;2.63;;;;;;;9.36;59.73;99597.06;6142226;23;20392;-96
2024/02/04 04:39:24;;;;;;;4.82;2.63;;;;;;;9.43;59.45;99605.69;6139563;23;20428;-96
2024/02/04 04:41:57;;;;;;;3.70;2.05;;;;;;;9.41;59.87;99604.34;6139462;23;20109;-96
2024/02/04 04:44:23;;;;;;;5.40;2.75;;;;;;;9.37;59.53;99593.28;6162111;23;20028;-96
2024/02/04 04:46:51;;;;;;;2.78;2.35;;;;;;;9.39;59.72;99601.09;6144523;23;20424;-96
2024/02/04 04:52:11;;;;;;;3.15;2.30;;;;;;;9.48;59.63;99611.13;6170385;23;20001;-96
2024/02/04 04:54:42;;;;;;;4.75;2.97;;;;;;;9.40;59.66;99587.41;6098092;23;20005;-96
2024/02/04 04:57:26;;;;;;;3.33;2.47;;;;;;;9.41;60.12;99598.97;6101210;23;20006;-96
2024/02/04 05:00:06;;;;;;;3.03;2.10;;;;;;;9.51;59.96;99624.06;6107015;23;20018;-96
2024/02/04 05:02:51;;;;;;;;;;;;;;;;;;;;;
2024/02/04 05:05:24;;;;;;;3.05;2.10;;;;;;;9.38;60.08;99597.59;6146235;23;20032;-96
2024/02/04 05:11:08;;;;;;;3.38;2.50;;;;;;;9.39;60.13;99604.59;6081987;23;19998;-96
2024/02/04 05:13:43;;;;;;;5.43;2.80;;;;;;;9.44;60.14;99612.72;6110146;23;20081;-96
2024/02/04 05:16:15;;;;;;;4.70;2.28;;;;;;;9.57;60.28;99619.53;6084325;23;20002;-96
2024/02/04 05:18:53;;;;;;;4.18;2.28;;;;;;;9.47;59.95;99612.19;6059935;23;20037;-96
2024/02/04 05:21:21;;;;;;;4.38;2.22;;;;;;;9.40;59.72;99606.22;6086002;23;20081;-96
2024/02/04 05:23:48;;;;;;;3.70;2.45;;;;;;;9.41;59.98;99610.53;6110210;23;20061;-97
2024/02/04 05:26:40;;;;;;;4.00;2.63;;;;;;;9.32;60.12;99601.31;6088055;23;20012;-96
2024/02/04 05:29:09;;;;;;;3.90;2.50;;;;;;;9.41;60.21;99621.28;6097170;23;20013;-96
2024/02/04 05:31:44;;;;;;;4.63;2.88;;;;;;;9.35;60.22;99602.66;6080764;23;20437;-96
2024/02/04 05:34:13;;;;;;;3.50;2.45;;;;;;;9.33;60.36;99637.84;6080547;23;20001;-95
2024/02/04 05:36:41;;;;;;;3.88;2.55;;;;;;;9.14;60.35;99602.47;6080450;23;20010;-96
2024/02/04 05:39:14;;;;;;;4.18;2.70;;;;;;;9.21;60.65;99618.38;6109708;23;20016;-96
2024/02/04 05:41:43;;;;;;;3.03;1.98;;;;;;;9.29;60.43;99628.69;6139543;23;20009;-96
2024/02/04 05:44:09;;;;;;;6.07;2.38;;;;;;;9.16;60.10;99599.53;6145567;23;20096;-96
2024/02/04 05:46:38;;;;;;;4.18;2.47;;;;;;;9.17;60.47;99620.78;6168770;23;20005;-96
2024/02/04 05:49:04;;;;;;;3.22;2.15;;;;;;;9.31;59.75;99623.84;6143711;23;20004;-96
2024/02/04 05:51:50;;;;;;;3.53;2.50;;;;;;;9.16;59.97;99610.28;6142396;23;20039;-96
2024/02/04 05:54:16;;;;;;;4.00;2.60;;;;;;;9.06;60.11;99602.91;6168684;23;20001;-96
2024/02/04 05:56:48;;;;;;;3.90;2.50;;;;;;;9.09;60.38;99608.59;6168591;23;20064;-96
2024/02/04 05:59:15;;;;;;;4.10;2.42;;;;;;;9.07;60.33;99618.78;6168198;23;20454;-96
2024/02/04 06:01:44;;;;;;;4.75;2.47;;;;;;;9.25;60.45;99638.31;6144296;23;20043;-96
2024/02/04 06:04:13;;;;;;;5.03;2.80;;;;;;;9.30;60.42;99638.38;6143274;23;20414;-96
2024/02/04 06:06:39;;;;;;;6.10;2.92;;;;;;;9.16;60.32;99621.84;6146483;23;20004;-96
2024/02/04 06:09:08;;;;;;;6.65;3.33;;;;;;;9.26;60.04;99621.13;6144749;23;20066;-96
2024/02/04 06:11:34;;;;;;;6.70;3.38;;;;;;;9.28;60.06;99619.00;6169106;23;20035;-96
2024/02/04 06:14:30;;;;;;;8.20;4.45;;;;;;;9.22;60.48;99611.97;6150153;23;19996;-96
2024/02/04 06:17:01;;;;;;;8.13;3.97;;;;;;;9.33;60.51;99627.09;6186442;23;19996;-96
2024/02/04 06:20:06;;;;;;;6.95;3.85;;;;;;;9.26;60.33;99619.25;6157378;23;20063;-96
2024/02/04 06:22:51;;;;;;;;;;;;;;;;;;;;;
2024/02/04 06:25:19;;;;;;;7.22;4.70;;;;;;;9.25;60.52;99609.56;6181177;23;20403;-96
2024/02/04 06:27:51;;;;;;;6.25;3.58;;;;;;;9.37;60.11;99616.66;6149704;23;20008;-96
2024/02/04 06:30:17;;;;;;;5.88;3.60;;;;;;;9.40;60.31;99613.44;6149694;23;19996;-96
2024/02/04 06:32:43;;;;;;;4.90;3.10;;;;;;;9.51;60.09;99626.75;6151121;23;19997;-95
2024/02/04 06:35:09;;;;;;;6.90;3.78;;;;;;;9.51;60.61;99616.00;6147018;23;20080;-96
2024/02/04 06:37:35;;;;;;;5.63;3.60;;;;;;;9.52;60.25;99619.47;6147718;23;20031;-96
2024/02/04 06:40:03;;;;;;;4.63;2.90;;;;;;;9.56;59.72;99615.22;6171292;23;20411;-94
2024/02/04 06:42:29;;;;;;;7.72;3.63;;;;;;;9.62;59.98;99621.47;6147077;23;20021;-96
2024/02/04 06:44:55;;;;;;;38.97;13.88;;;;;;;9.58;60.15;99628.41;6146271;23;20016;-96
2024/02/04 06:50:07;;;;;;;9.25;4.88;;;;;;;9.69;60.02;99639.00;6177255;23;20008;-96
2024/02/04 06:52:33;;;;;;;6.25;4.53;;;;;;;9.75;59.94;99639.84;6145797;23;20063;-96
2024/02/04 06:55:10;;;;;;;5.40;3.50;;;;;;;9.66;59.66;99619.88;6145997;23;20000;-96
2024/02/04 06:57:39;;;;;;;4.97;2.97;;;;;;;9.68;59.79;99633.88;6148771;23;20031;-96
2024/02/04 07:00:09;;;;;;;7.70;3.75;;;;;;;9.73;59.71;99641.16;6146983;23;20032;-96
2024/02/04 07:02:38;;;;;;;5.95;3.40;;;;;;;9.73;59.36;99630.41;6146823;23;20007;-96
2024/02/04 07:05:07;;;;;;;6.88;3.30;;;;;;;9.78;58.96;99642.03;6146042;23;20347;-96
2024/02/04 07:07:41;;;;;;;5.55;3.30;;;;;;;9.70;59.42;99637.94;6145724;23;20028;-96
2024/02/04 07:10:07;;;;;;;6.88;3.47;;;;;;;9.70;59.29;99646.00;6145412;23;20427;-96
2024/02/04 07:12:33;;;;;;;4.07;2.90;;;;;;;9.89;59.05;99651.00;6144559;23;20001;-96
2024/02/04 07:15:02;;;;;;;5.78;3.05;;;;;;;9.87;59.02;99643.16;6149797;23;20414;-96
2024/02/04 07:17:30;;;;;;;4.93;3.05;;;;;;;9.73;59.22;99630.41;6152530;23;20001;-96
2024/02/04 07:20:04;;;;;;;6.72;3.20;;;;;;;10.00;59.43;99666.16;6151882;23;20004;-96
2024/02/04 07:22:33;;;;;;;5.43;2.88;;;;;;;9.97;59.06;99655.91;6159605;23;20000;-96
2024/02/04 07:24:58;;;;;;;4.40;3.13;;;;;;;10.02;58.22;99664.03;6153835;23;19997;-96
2024/02/04 07:27:26;;;;;;;5.00;3.78;;;;;;;9.90;58.66;99639.97;6151067;23;20436;-96
2024/02/04 07:29:54;;;;;;;6.47;4.00;;;;;;;9.94;58.52;99642.13;6151674;23;19996;-96
2024/02/04 07:32:21;;;;;;;5.32;2.80;;;;;;;10.04;58.81;99655.66;6148068;23;20016;-96
2024/02/04 07:34:46;;;;;;;5.55;3.20;;;;;;;10.04;58.11;99642.22;6146544;23;19984;-96
2024/02/04 07:37:12;;;;;;;7.07;3.30;;;;;;;10.10;58.10;99657.31;6145370;23;20070;-96
2024/02/04 07:39:38;;;;;;;7.07;3.55;;;;;;;10.06;58.17;99648.97;6145756;23;20320;-96
2024/02/04 07:42:12;;;;;;;5.80;3.22;;;;;;;10.04;58.28;99639.53;6145285;23;20015;-96
2024/02/04 07:44:37;;;;;;;4.65;3.17;;;;;;;10.07;58.16;99633.66;6148508;23;20079;-96
2024/02/04 07:47:03;;;;;;;7.38;3.80;;;;;;;10.19;57.89;99644.19;6147551;23;20415;-96
2024/02/04 07:49:32;;;;;;;5.20;3.25;;;;;;;10.17;57.54;99638.25;6147098;23;19993;-96
2024/02/04 07:52:00;;;;;;;6.95;4.03;;;;;;;10.16;57.59;99636.66;6146596;23;20000;-96
2024/02/04 07:54:29;;;;;;;6.55;4.32;;;;;;;10.41;57.02;99655.69;6144313;23;20000;-96
2024/02/04 07:57:03;;;;;;;5.50;3.50;;;;;;;10.47;57.16;99651.94;6147062;23;19997;-96
2024/02/04 07:59:31;;;;;;;6.88;3.67;;;;;;;10.39;56.78;99640.88;6149137;23;20005;-96
2024/02/04 08:01:57;;;;;;;5.88;3.47;;;;;;;10.48;57.05;99633.94;6148274;23;20005;-96
2024/02/04 08:04:23;;;;;;;5.28;3.33;;;;;;;10.67;56.37;99627.00;6146384;23;20084;-96
2024/02/04 08:06:52;;;;;;;5.97;3.30;;;;;;;10.64;56.13;99637.50;6148790;23;20011;-96
2024/02/04 08:09:21;;;;;;;6.97;3.58;;;;;;;10.63;56.15;99623.22;6145320;23;20000;-96
2024/02/04 08:11:57;;;;;;;6.15;3.58;;;;;;;10.72;56.17;99637.00;6147982;23;19988;-96
2024/02/04 08:14:33;;;;;;;5.20;3.08;;;;;;;10.75;55.89;99636.47;6175595;23;20020;-96
2024/02/04 08:17:04;;;;;;;5.80;3.45;;;;;;;10.80;55.82;99620.34;6146221;23;20058;-96
2024/02/04 08:19:33;;;;;;;5.95;3.28;;;;;;;10.75;55.84;99620.31;6147431;23;20096;-96
2024/02/04 08:21:59;;;;;;;6.90;4.20;;;;;;;10.72;56.14;99616.25;6145452;23;20080;-96
2024/02/04 08:24:42;;;;;;;5.25;3.30;;;;;;;10.71;55.76;99617.34;6151968;23;20016;-96
2024/02/04 08:27:17;;;;;;;4.93;2.88;;;;;;;10.78;55.57;99614.41;6203400;23;20007;-96
2024/02/04 08:29:53;;;;;;;5.10;3.67;;;;;;;10.78;54.91;99614.41;6158818;23;20004;-96
2024/02/04 08:32:33;;;;;;;;;;;;;;;;;;;;;
2024/02/04 08:35:20;;;;;;;5.88;3.08;;;;;;;10.63;55.81;99617.84;6187555;23;20001;-96
2024/02/04 08:37:54;;;;;;;4.93;3.17;;;;;;;10.59;55.99;99634.78;6161474;23;19996;-96
2024/02/04 08:40:31;;;;;;;5.97;3.20;;;;;;;10.47;55.91;99643.88;6157415;23;20035;-96
2024/02/04 08:46:03;;;;;;;;;;;;;;;;;;;;;
2024/02/04 08:48:37;;;;;;;4.32;2.78;;;;;;;10.47;55.70;99627.72;6213113;23;20013;-96
2024/02/04 08:51:09;;;;;;;4.63;3.33;;;;;;;10.65;55.46;99657.97;6160748;23;20001;-96
2024/02/04 08:53:53;;;;;;;4.93;3.20;;;;;;;10.87;55.07;99663.19;6160177;23;19984;-96
2024/02/04 09:34:40;;;;;;;5.40;3.25;;;;;;;12.21;51.33;99627.25;6225077;22;20057;-96
2024/02/04 09:38:16;;;;;;;5.75;3.42;;;;;;;12.56;50.85;99665.25;6206982;23;20017;-96
2024/02/04 09:41:43;;;;;;;5.30;3.17;;;;;;;12.41;51.01;99626.41;6235074;23;19996;-96
2024/02/04 10:00:45;;;;;;;6.07;2.95;;;;;;;12.66;50.06;99652.53;6201097;23;20096;-96
2024/02/04 10:03:43;;;;;;;6.53;3.15;;;;;;;12.61;50.19;99627.41;6113983;23;20065;-96
2024/02/04 10:06:21;;;;;;;;;;;;;;;;;;;;;
2024/02/04 10:09:25;;;;;;;;;;;;;;;;;;;;;
2024/02/04 11:39:01;;;;;;;3.28;2.30;;;;;;;12.54;49.24;99569.09;6220869;23;20019;-96
2024/02/04 11:41:32;;;;;;;3.42;2.53;;;;;;;12.66;49.43;99590.38;6118879;23;20010;-96
2024/02/04 11:44:11;;;;;;;4.72;2.17;;;;;;;12.49;49.52;99552.09;6064167;23;20041;-96
2024/02/04 11:46:43;;;;;;;3.15;2.40;;;;;;;12.63;49.32;99566.59;6089819;23;20120;-96
2024/02/04 11:52:12;;;;;;;5.43;2.10;;;;;;;12.60;49.40;99544.78;6205212;22;20029;-96
2024/02/04 11:54:50;;;;;;;3.60;2.22;;;;;;;12.75;50.15;99550.09;6097522;23;20020;-96
2024/02/04 11:57:38;;;;;;;7.95;2.30;;;;;;;12.90;48.78;99563.50;6046682;23;20007;-96
2024/02/04 12:00:09;;;;;;;4.90;2.40;;;;;;;12.88;48.76;99545.94;6027140;23;20015;-96
2024/02/04 12:03:31;;;;;;;2.83;1.83;;;;;;;12.99;48.11;99561.03;6029927;23;20015;-96
2024/02/04 12:09:31;;;;;;;3.28;1.90;;;;;;;12.66;48.35;99555.25;6230635;22;20005;-96
2024/02/04 12:14:42;;;;;;;3.42;2.22;;;;;;;12.43;49.63;99562.13;6215906;22;20023;-96
2024/02/04 12:17:40;;;;;;;4.63;2.75;;;;;;;12.26;49.69;99546.22;6155471;23;20012;-96
2024/02/04 12:20:38;;;;;;;6.10;3.13;;;;;;;12.29;49.88;99559.19;6136989;23;20014;-96
2024/02/04 12:23:43;;;;;;;;;;;;;;;;;;;;;
2024/02/04 12:26:36;;;;;;;5.85;1.92;;;;;;;12.02;50.37;99550.63;6092269;23;20022;-96
2024/02/04 12:29:22;;;;;;;2.80;2.05;;;;;;;12.07;50.11;99539.81;6117828;23;20017;-96
2024/02/04 12:32:54;;;;;;;;;;;;;;;;;;;;;
2024/02/04 12:35:43;;;;;;;3.78;2.40;;;;;;;12.05;50.27;99525.78;6142210;23;20036;-94
2024/02/04 12:39:07;;;;;;;;;;;;;;;;;;;;;
2024/02/04 13:01:27;;;;;;;3.25;2.10;;;;;;;12.07;50.65;99502.03;6210588;22;20021;-96
2024/02/04 13:04:05;;;;;;;4.53;2.40;;;;;;;12.08;50.83;99506.34;6121324;23;20013;-96
2024/02/04 13:06:46;;;;;;;3.25;2.42;;;;;;;12.13;50.81;99509.03;6120898;23;20355;-96
2024/02/04 13:09:36;;;;;;;2.97;2.03;;;;;;;12.21;50.15;99504.97;6149061;23;20005;-96
2024/02/04 13:12:32;;;;;;;4.28;2.40;;;;;;;12.36;49.96;99507.59;6020928;23;20007;-96
2024/02/04 13:15:05;;;;;;;3.35;2.40;;;;;;;12.35;49.94;99497.88;6142361;23;20332;-96
2024/02/04 13:18:03;;;;;;;3.22;2.13;;;;;;;12.32;50.17;99487.63;6121579;23;20001;-96
2024/02/04 13:20:41;;;;;;;;;;;;;;;;;;;;;
2024/02/04 13:23:38;;;;;;;2.85;1.80;;;;;;;12.33;49.16;99498.16;6179542;23;20001;-96
2024/02/04 13:33:02;;;;;;;4.82;2.85;;;;;;;12.36;49.44;99469.78;6143379;23;20084;-96
2024/02/04 13:36:16;;;;;;;4.03;2.45;;;;;;;12.27;49.68;99469.56;6150901;23;20446;-96
2024/02/04 13:39:41;;;;;;;4.15;2.10;;;;;;;12.34;49.81;99470.06;6084455;23;20006;-96
2024/02/04 13:42:24;;;;;;;;;;;;;;;12.48;49.38;99499.16;5952975;24;20523;-96
2024/02/04 13:45:02;;;;;;;2.60;1.73;;;;;;;12.40;49.60;99495.16;5966501;24;19914;-96
2024/02/04 13:48:25;;;;;;;;;;;;;;;;;;;;;
2024/02/04 15:09:50;;;;;;;17.30;6.47;;;;;;;11.88;52.20;99454.06;6233854;22;20059;-96
2024/02/04 15:12:18;;;;;;;6.97;3.22;;;;;;;11.73;51.97;99465.66;6154450;23;20013;-96
2024/02/04 15:15:04;;;;;;;;;;;;;;;;;;;;;
2024/02/04 15:23:22;;;;;;;;;;;;;;;;;;;;;
2024/02/04 15:26:03;;;;;;;6.97;2.88;;;;;;;11.86;52.18;99499.34;6184822;23;20027;-96
2024/02/04 15:28:47;;;;;;;;;;;;;;;;;;;;;
2024/02/04 15:32:04;;;;;;;7.72;4.20;;;;;;;11.64;52.68;99510.47;6184865;23;20036;-96
2024/02/04 15:34:36;;;;;;;;;;;;;;;;;;;;;
2024/02/04 15:37:25;;;;;;;7.93;4.05;;;;;;;11.62;52.54;99519.91;6030903;23;20462;-96
2024/02/04 15:39:54;;;;;;;5.85;3.83;;;;;;;11.58;52.61;99521.53;6114421;23;20006;-96
2024/02/04 15:42:22;;;;;;;6.57;4.40;;;;;;;11.55;53.08;99513.97;6113617;23;20002;-96
2024/02/04 15:44:56;;;;;;;9.70;6.45;;;;;;;11.60;53.00;99532.84;6110493;23;20006;-96
2024/02/04 15:47:32;;;;;;;6.18;4.07;;;;;;;11.59;52.82;99526.66;6161525;23;20006;-96
2024/02/04 15:52:59;;;;;;;8.70;4.03;;;;;;;11.60;52.91;99519.34;6043204;23;20019;-95
2024/02/04 15:55:30;;;;;;;10.55;3.95;;;;;;;11.63;52.74;99524.22;6098380;23;20045;-96
2024/02/04 16:01:24;;;;;;;5.13;3.10;;;;;;;11.72;53.10;99530.66;6128614;23;20044;-96
2024/02/04 16:03:55;;;;;;;4.93;3.17;;;;;;;11.77;52.74;99538.78;6106322;23;20080;-96
2024/02/04 16:06:29;;;;;;;4.50;2.72;;;;;;;11.82;52.40;99530.66;6130890;23;20093;-96
2024/02/04 16:08:58;;;;;;;5.15;3.15;;;;;;;11.86;52.56;99533.63;6166685;23;20058;-96
2024/02/04 16:11:25;;;;;;;4.50;2.75;;;;;;;11.80;52.47;99522.03;6145360;23;19996;-96
2024/02/04 16:13:56;;;;;;;6.35;3.80;;;;;;;11.96;52.42;99546.34;6170794;23;20001;-96
2024/02/04 16:16:33;;;;;;;5.60;3.80;;;;;;;11.80;52.48;99526.63;6147619;23;20000;-96
2024/02/04 16:19:09;;;;;;;8.68;4.35;;;;;;;11.81;52.28;99526.34;6149337;23;20084;-96
2024/02/04 16:21:36;;;;;;;14.85;7.20;;;;;;;11.89;52.39;99538.50;6148532;23;20009;-96
2024/02/04 16:24:08;;;;;;;9.75;5.28;;;;;;;12.02;52.14;99556.03;6146326;23;20434;-96
2024/02/04 16:26:50;;;;;;;6.93;4.43;;;;;;;11.86;52.13;99534.44;6143532;23;20012;-96
2024/02/04 16:34:40;;;;;;;7.60;3.55;;;;;;;11.94;52.03;99554.69;6190903;22;20021;-96
2024/02/04 16:37:22;;;;;;;13.65;6.03;;;;;;;11.89;51.98;99554.69;6146029;23;20010;-96
2024/02/04 16:39:54;;;;;;;18.90;7.35;;;;;;;11.92;51.89;99549.56;6142731;23;20388;-96
2024/02/04 16:42:34;;;;;;;10.13;5.03;;;;;;;11.91;51.86;99547.13;6117403;23;20008;-96
2024/02/04 16:45:03;;;;;;;5.47;3.50;;;;;;;11.95;51.64;99552.78;6120765;23;20000;-96
2024/02/04 20:59:54;;;;;;;;;;;;;;;;;;;;;
2024/02/04 21:02:29;;;;;;;5.63;3.22;;;;;;;9.06;59.07;99558.06;6183870;23;20084;-96
2024/02/04 21:04:58;;;;;;;5.47;2.70;;;;;;;8.96;59.51;99557.97;6156095;23;20068;-96
2024/02/04 21:07:36;;;;;;;7.35;2.70;;;;;;;9.08;59.00;99574.75;6176969;23;20154;-96
2024/02/04 21:10:13;;;;;;;5.25;2.83;;;;;;;8.98;59.56;99558.53;6182087;23;20013;-96
2024/02/04 22:37:25;;;;;;;4.07;2.30;;;;;;;8.65;58.63;99503.97;6228553;22;20091;-96
2024/02/04 22:40:08;;;;;;;3.78;2.42;;;;;;;8.76;59.10;99515.63;6151787;23;20455;-96
2024/02/04 22:42:42;;;;;;;3.53;2.10;;;;;;;8.70;58.75;99508.56;6150471;23;20069;-96
2024/02/04 22:45:16;;;;;;;3.83;2.55;;;;;;;8.74;58.52;99504.31;6149066;23;20004;-96
2024/02/04 22:47:44;;;;;;;3.58;2.33;;;;;;;8.87;58.77;99511.97;6152812;23;20009;-96
2024/02/04 22:50:21;;;;;;;6.47;2.95;;;;;;;8.98;57.98;99518.22;6150689;23;19996;-96
2024/02/04 22:52:53;;;;;;;4.35;2.70;;;;;;;9.06;58.10;99517.78;6153223;23;20450;-96
2024/02/04 22:55:39;;;;;;;2.97;1.98;;;;;;;9.10;58.03;99512.72;6153173;23;20001;-96
2024/02/04 22:58:11;;;;;;;3.00;1.90;;;;;;;9.11;57.78;99514.34;6156335;23;19996;-96
2024/02/04 23:00:50;;;;;;;2.90;2.00;;;;;;;9.16;57.61;99510.88;6151173;23;20004;-96
2024/02/04 23:16:41;;;;;;;3.58;2.28;;;;;;;8.96;57.94;99473.91;6207680;22;20012;-96
2024/02/04 23:19:13;;;;;;;4.65;2.40;;;;;;;9.07;57.47;99497.91;6143969;23;20013;-96
2024/02/04 23:21:43;;;;;;;6.50;3.17;;;;;;;9.02;58.24;99491.69;6144014;23;20016;-96
2024/02/04 23:24:37;;;;;;;5.72;2.78;;;;;;;8.79;58.28;99461.41;6143721;23;20490;-96
2024/02/04 23:27:03;;;;;;;3.75;2.30;;;;;;;8.82;58.38;99462.75;6126272;23;20068;-96
2024/02/04 23:29:38;;;;;;;4.38;2.30;;;;;;;8.74;59.11;99456.00;6141862;23;20065;-96
2024/02/04 23:32:07;;;;;;;3.30;2.47;;;;;;;8.73;58.97;99461.63;6138358;23;20004;-96
2024/02/04 23:34:33;;;;;;;3.95;2.58;;;;;;;8.62;59.28;99448.09;6159744;23;20024;-96
2024/02/04 23:36:59;;;;;;;7.32;2.83;;;;;;;8.46;59.24;99435.59;6142355;23;20443;-96
2024/02/04 23:39:28;;;;;;;5.00;3.10;;;;;;;8.49;59.80;99457.38;6144478;23;20004;-96
2024/02/04 23:41:53;;;;;;;5.90;2.83;;;;;;;8.32;59.90;99432.44;6144065;23;20088;-96
2024/02/04 23:44:19;;;;;;;6.72;3.30;;;;;;;8.22;59.85;99441.22;6144981;23;20004;-96
2024/02/04 23:46:47;;;;;;;5.88;3.50;;;;;;;8.17;60.39;99435.78;6145604;23;20000;-96
2024/02/04 23:49:13;;;;;;;8.52;3.78;;;;;;;8.09;60.89;99428.16;6144025;23;20015;-96
2024/02/04 23:51:39;;;;;;;6.53;3.42;;;;;;;8.10;60.49;99438.66;6144341;23;20407;-96
2024/02/04 23:54:05;;;;;;;5.47;3.58;;;;;;;8.10;61.01;99460.13;6143452;23;20000;-96
2024/02/04 23:56:31;;;;;;;5.13;3.70;;;;;;;7.98;61.01;99450.56;6143855;23;20054;-96
2024/02/04 23:58:56;;;;;;;7.40;3.63;;;;;;;8.06;61.10;99463.53;6152044;23;20355;-96
